createdAt,value
2022-07-30T00:01:39.737Z,12.27
2022-07-30T00:04:06.606Z,11.23
2022-07-30T00:06:33.276Z,10.35
2022-07-30T00:08:59.960Z,14.88
2022-07-30T00:11:28.035Z,11.10
2022-07-30T00:13:55.205Z,10.15
2022-07-30T00:16:21.820Z,14.30
2022-07-30T00:18:48.504Z,9.32
2022-07-30T00:21:34.697Z,12.27
2022-07-30T00:24:02.483Z,14.35
2022-07-30T00:26:29.248Z,11.05
2022-07-30T00:28:56.012Z,9.93
2022-07-30T00:31:23.300Z,11.95
2022-07-30T00:33:49.932Z,11.18
2022-07-30T00:36:16.472Z,12.07
2022-07-30T00:38:43.168Z,11.73
2022-07-30T00:41:09.709Z,11.35
2022-07-30T00:43:36.338Z,11.82
2022-07-30T00:46:03.130Z,11.32
2022-07-30T00:48:29.773Z,14.52
2022-07-30T00:50:56.432Z,11.23
2022-07-30T00:53:24.009Z,11.25
2022-07-30T00:55:50.667Z,10.18
2022-07-30T00:58:17.219Z,13.50
2022-07-30T01:00:43.973Z,12.95
2022-07-30T01:03:10.646Z,13.27
2022-07-30T01:05:37.250Z,13.13
2022-07-30T01:08:04.280Z,16.10
2022-07-30T01:10:30.847Z,15.18
2022-07-30T01:12:59.125Z,12.35
2022-07-30T01:15:26.033Z,11.70
2022-07-30T01:17:56.738Z,15.90
2022-07-30T01:20:28.905Z,14.57
2022-07-30T01:23:21.476Z,13.32
2022-07-30T01:26:02.655Z,12.10
2022-07-30T01:28:33.680Z,13.47
2022-07-30T01:31:01.542Z,14.47
2022-07-30T01:33:30.025Z,14.80
2022-07-30T01:35:58.328Z,13.85
2022-07-30T01:38:27.387Z,15.68
2022-07-30T01:40:59.333Z,13.95
2022-07-30T01:43:27.158Z,12.50
2022-07-30T01:45:55.464Z,14.93
2022-07-30T01:48:24.806Z,14.15
2022-07-30T01:50:55.029Z,16.77
2022-07-30T01:53:25.148Z,12.20
2022-07-30T01:55:54.449Z,19.55
2022-07-30T01:58:25.452Z,17.52
2022-07-30T02:00:58.247Z,14.82
2022-07-30T02:03:26.768Z,18.20
2022-07-30T02:06:00.665Z,15.68
2022-07-30T02:08:54.637Z,15.68
2022-07-30T02:11:41.856Z,15.73
2022-07-30T02:14:18.129Z,20.65
2022-07-30T02:16:50.210Z,18.08
2022-07-30T02:19:19.720Z,16.08
2022-07-30T02:21:51.055Z,16.98
2022-07-30T02:24:25.875Z,14.15
2022-07-30T02:26:58.233Z,13.30
2022-07-30T02:29:25.802Z,15.15
2022-07-30T02:31:56.263Z,14.80
2022-07-30T02:34:24.980Z,20.30
2022-07-30T02:36:53.110Z,24.70
2022-07-30T02:39:21.331Z,23.75
2022-07-30T02:41:50.064Z,21.23
2022-07-30T02:44:20.327Z,20.15
2022-07-30T02:46:48.801Z,16.73
2022-07-30T02:49:52.425Z,19.92
2022-07-30T02:52:19.799Z,15.82
2022-07-30T02:54:49.431Z,24.70
2022-07-30T02:57:19.412Z,17.05
2022-07-30T02:59:47.800Z,18.25
2022-07-30T03:02:15.138Z,18.88
2022-07-30T03:04:43.284Z,19.10
2022-07-30T03:07:11.164Z,17.95
2022-07-30T03:09:51.926Z,15.27
2022-07-30T03:12:21.604Z,17.57
2022-07-30T03:14:48.343Z,16.50
2022-07-30T03:17:17.137Z,18.08
2022-07-30T03:19:45.622Z,17.77
2022-07-30T03:22:14.763Z,19.75
2022-07-30T03:24:44.341Z,21.80
2022-07-30T03:27:13.749Z,21.40
2022-07-30T03:29:41.905Z,21.15
2022-07-30T03:32:09.236Z,17.05
2022-07-30T03:34:42.071Z,19.92
2022-07-30T03:37:10.975Z,19.73
2022-07-30T03:39:39.749Z,18.38
2022-07-30T03:42:08.048Z,17.55
2022-07-30T03:44:37.160Z,19.90
2022-07-30T03:47:06.137Z,19.90
2022-07-30T03:49:38.705Z,21.52
2022-07-30T03:52:09.938Z,18.97
2022-07-30T03:54:37.128Z,19.95
2022-07-30T03:57:09.884Z,21.58
2022-07-30T03:59:43.350Z,23.83
2022-07-30T04:02:10.165Z,23.75
2022-07-30T04:05:05.893Z,19.73
2022-07-30T04:07:33.131Z,23.08
2022-07-30T04:09:59.700Z,17.30
2022-07-30T04:12:45.256Z,21.08
2022-07-30T04:16:35.555Z,16.83
2022-07-30T04:18:04.363Z,23.63
2022-07-30T04:20:36.802Z,20.83
2022-07-30T04:23:04.197Z,21.80
2022-07-30T04:25:32.003Z,19.52
2022-07-30T04:28:03.786Z,21.58
2022-07-30T04:30:34.757Z,20.75
2022-07-30T04:33:03.332Z,19.52
2022-07-30T04:35:51.292Z,25.30
2022-07-30T04:38:32.376Z,24.33
2022-07-30T04:40:59.057Z,21.75
2022-07-30T04:43:28.245Z,28.05
2022-07-30T04:45:55.098Z,19.77
2022-07-30T04:48:21.990Z,22.67
2022-07-30T04:51:07.329Z,18.90
2022-07-30T04:53:35.328Z,27.33
2022-07-30T04:56:04.195Z,23.10
2022-07-30T04:58:33.780Z,20.38
2022-07-30T05:01:01.935Z,20.40
2022-07-30T05:03:31.678Z,27.05
2022-07-30T05:06:00.329Z,20.92
2022-07-30T05:08:31.307Z,24.50
2022-07-30T05:11:01.043Z,22.58
2022-07-30T05:15:51.686Z,22.42
2022-07-30T05:18:20.170Z,21.88
2022-07-30T05:20:46.776Z,20.95
2022-07-30T05:23:21.273Z,21.08
2022-07-30T05:26:21.673Z,26.00
2022-07-30T05:28:55.259Z,22.30
2022-07-30T05:31:30.654Z,24.05
2022-07-30T05:34:03.591Z,20.92
2022-07-30T05:36:39.916Z,22.52
2022-07-30T05:39:06.549Z,24.73
2022-07-30T05:41:44.932Z,24.63
2022-07-30T05:44:21.982Z,23.77
2022-07-30T05:46:50.468Z,20.77
2022-07-30T05:49:17.422Z,21.40
2022-07-30T05:51:45.284Z,25.13
2022-07-30T05:54:12.405Z,23.40
2022-07-30T05:57:08.188Z,31.45
2022-07-30T05:59:37.865Z,27.05
2022-07-30T06:02:30.632Z,28.05
2022-07-30T06:05:15.992Z,24.77
2022-07-30T06:07:43.425Z,43.13
2022-07-30T06:10:10.173Z,32.90
2022-07-30T06:12:37.527Z,28.60
2022-07-30T06:15:04.604Z,29.55
2022-07-30T06:17:44.836Z,41.65
2022-07-30T06:20:30.407Z,31.90
2022-07-30T06:23:08.907Z,32.35
2022-07-30T06:26:04.528Z,29.58
2022-07-30T06:28:39.438Z,32.75
2022-07-30T06:31:35.825Z,35.30
2022-07-30T06:34:02.405Z,28.13
2022-07-30T06:36:34.564Z,27.60
2022-07-30T06:39:05.081Z,30.95
2022-07-30T06:41:52.080Z,24.77
2022-07-30T06:44:18.741Z,28.95
2022-07-30T06:46:51.111Z,35.80
2022-07-30T06:49:20.177Z,28.02
2022-07-30T06:53:59.517Z,42.33
2022-07-30T06:56:29.022Z,29.60
2022-07-30T06:59:01.847Z,29.27
2022-07-30T07:01:47.203Z,31.80
2022-07-30T07:04:14.757Z,28.52
2022-07-30T07:06:41.487Z,29.38
2022-07-30T07:09:10.021Z,28.55
2022-07-30T07:11:44.919Z,27.20
2022-07-30T07:14:15.740Z,26.38
2022-07-30T07:16:42.352Z,26.38
2022-07-30T07:19:59.447Z,30.08
2022-07-30T07:22:18.356Z,28.02
2022-07-30T07:24:45.036Z,43.08
2022-07-30T07:30:04.693Z,38.15
2022-07-30T07:32:36.221Z,42.22
2022-07-30T07:35:04.616Z,42.05
2022-07-30T07:37:32.912Z,37.40
2022-07-30T07:39:59.745Z,42.03
2022-07-30T07:42:29.288Z,47.55
2022-07-30T07:44:56.024Z,43.03
2022-07-30T07:47:23.593Z,46.75
2022-07-30T07:50:10.583Z,49.42
2022-07-30T07:52:37.244Z,43.95
2022-07-30T07:55:04.127Z,38.55
2022-07-30T07:57:44.513Z,40.90
2022-07-30T08:00:15.161Z,38.03
2022-07-30T08:02:51.330Z,39.20
2022-07-30T08:05:18.956Z,39.03
2022-07-30T08:07:46.051Z,34.72
2022-07-30T08:10:31.697Z,44.97
2022-07-30T08:13:47.857Z,41.05
2022-07-30T08:16:22.214Z,35.75
2022-07-30T08:18:51.940Z,39.33
2022-07-30T08:21:26.309Z,34.08
2022-07-30T08:23:53.123Z,28.05
2022-07-30T08:26:20.040Z,25.30
2022-07-30T08:28:46.938Z,28.67
2022-07-30T08:31:13.683Z,26.98
2022-07-30T08:33:40.329Z,26.42
2022-07-30T08:36:09.647Z,28.30
2022-07-30T08:38:38.150Z,21.20
2022-07-30T08:41:05.332Z,20.25
2022-07-30T08:43:35.780Z,19.52
2022-07-30T08:46:05.291Z,19.83
2022-07-30T08:49:07.575Z,19.08
2022-07-30T08:51:36.726Z,17.95
2022-07-30T08:54:28.212Z,19.23
2022-07-30T08:56:55.949Z,18.95
2022-07-30T08:59:24.588Z,16.42
2022-07-30T09:02:12.995Z,13.65
2022-07-30T09:04:54.328Z,12.65
2022-07-30T09:07:21.142Z,14.25
2022-07-30T09:09:47.978Z,14.25
2022-07-30T09:12:36.570Z,13.50
2022-07-30T09:15:10.005Z,15.20
2022-07-30T09:18:00.545Z,13.85
2022-07-30T09:20:32.556Z,12.45
2022-07-30T09:23:02.986Z,12.60
2022-07-30T09:28:16.133Z,10.38
2022-07-30T09:31:02.396Z,11.00
2022-07-30T09:33:47.892Z,9.45
2022-07-30T09:38:56.504Z,8.77
2022-07-30T09:41:46.405Z,10.07
2022-07-30T09:44:23.940Z,12.07
2022-07-30T09:46:53.523Z,9.05
2022-07-30T09:49:31.716Z,9.80
2022-07-30T09:51:59.217Z,9.50
2022-07-30T09:54:51.580Z,11.98
2022-07-30T09:57:27.569Z,8.70
2022-07-30T10:00:24.003Z,8.98
2022-07-30T10:05:31.449Z,9.30
2022-07-30T10:08:02.621Z,9.20
2022-07-30T10:10:31.527Z,7.95
2022-07-30T10:13:04.431Z,7.05
2022-07-30T10:15:37.153Z,11.40
2022-07-30T10:18:06.083Z,8.88
2022-07-30T10:21:10.865Z,9.65
2022-07-30T10:23:56.673Z,7.78
2022-07-30T10:26:43.529Z,7.13
2022-07-30T10:29:33.730Z,9.18
2022-07-30T10:32:02.095Z,9.07
2022-07-30T10:34:33.913Z,6.63
2022-07-30T10:37:06.609Z,7.53
2022-07-30T10:39:47.380Z,10.63
2022-07-30T10:42:37.307Z,8.10
2022-07-30T10:45:23.475Z,11.02
2022-07-30T10:47:52.267Z,7.07
2022-07-30T10:50:26.446Z,11.65
2022-07-30T10:52:58.767Z,7.50
2022-07-30T10:55:36.822Z,11.20
2022-07-30T10:58:08.620Z,13.50
2022-07-30T11:00:53.797Z,7.72
2022-07-30T11:03:40.036Z,7.78
2022-07-30T11:06:24.025Z,7.20
2022-07-30T11:08:50.805Z,8.80
2022-07-30T11:11:59.060Z,9.55
2022-07-30T11:14:09.965Z,14.30
2022-07-30T11:16:36.981Z,7.97
2022-07-30T11:19:56.988Z,7.78
2022-07-30T11:22:28.176Z,13.02
2022-07-30T11:24:55.671Z,7.55
2022-07-30T11:27:45.867Z,6.88
2022-07-30T11:30:17.232Z,9.20
2022-07-30T11:32:48.489Z,11.70
2022-07-30T11:38:19.705Z,12.07
2022-07-30T11:40:49.175Z,9.35
2022-07-30T11:43:34.833Z,8.65
2022-07-30T11:46:12.292Z,12.95
2022-07-30T11:48:56.900Z,11.25
2022-07-30T11:51:24.389Z,10.13
2022-07-30T11:54:17.569Z,11.05
2022-07-30T11:57:02.081Z,12.73
2022-07-30T11:59:30.840Z,10.88
2022-07-30T12:02:01.583Z,10.45
2022-07-30T12:04:28.678Z,10.32
2022-07-30T12:06:55.729Z,14.93
2022-07-30T12:09:29.836Z,11.40
2022-07-30T12:11:57.337Z,14.25
2022-07-30T12:14:24.241Z,14.73
2022-07-30T12:16:53.078Z,14.93
2022-07-30T12:19:19.965Z,14.52
2022-07-30T12:21:50.927Z,11.77
2022-07-30T12:24:25.950Z,10.18
2022-07-30T12:26:52.628Z,10.02
2022-07-30T12:29:19.469Z,10.90
2022-07-30T12:31:46.820Z,8.95
2022-07-30T12:34:24.899Z,11.30
2022-07-30T12:36:51.989Z,10.07
2022-07-30T12:39:21.327Z,9.23
2022-07-30T12:41:50.332Z,16.98
2022-07-30T12:44:45.124Z,9.90
2022-07-30T12:47:26.616Z,10.45
2022-07-30T12:49:55.851Z,10.75
2022-07-30T12:52:30.995Z,11.82
2022-07-30T12:55:12.425Z,13.55
2022-07-30T12:57:56.487Z,10.38
2022-07-30T13:00:25.057Z,9.55
2022-07-30T13:02:51.901Z,9.95
2022-07-30T13:05:18.525Z,13.00
2022-07-30T13:08:00.121Z,13.95
2022-07-30T13:10:31.298Z,13.00
2022-07-30T13:15:25.380Z,13.02
2022-07-30T13:17:52.010Z,11.50
2022-07-30T13:20:18.686Z,11.90
2022-07-30T13:22:45.490Z,14.82
2022-07-30T13:25:12.861Z,15.50
2022-07-30T13:27:39.807Z,13.05
2022-07-30T13:30:07.048Z,10.50
2022-07-30T13:32:33.682Z,15.00
2022-07-30T13:35:01.882Z,14.80
2022-07-30T13:37:37.892Z,16.50
2022-07-30T13:40:06.092Z,17.13
2022-07-30T13:42:32.829Z,17.95
2022-07-30T13:44:59.457Z,18.13
2022-07-30T13:47:25.992Z,21.70
2022-07-30T13:49:53.369Z,18.90
2022-07-30T13:52:20.097Z,23.58
2022-07-30T13:54:46.624Z,26.40
2022-07-30T13:57:13.235Z,26.02
2022-07-30T13:59:39.875Z,28.23
2022-07-30T14:02:06.443Z,31.73
2022-07-30T14:04:33.113Z,36.13
2022-07-30T14:06:59.810Z,38.80
2022-07-30T14:09:26.848Z,37.83
2022-07-30T14:11:53.591Z,36.97
2022-07-30T14:14:22.363Z,33.30
2022-07-30T14:16:53.655Z,38.65
2022-07-30T14:19:23.177Z,36.78
2022-07-30T14:21:54.693Z,34.95
2022-07-30T14:24:22.214Z,33.60
2022-07-30T14:26:49.164Z,30.90
2022-07-30T14:29:15.720Z,34.40
2022-07-30T14:31:42.671Z,29.88
2022-07-30T14:34:10.120Z,33.38
2022-07-30T14:36:37.339Z,33.75
2022-07-30T14:39:04.852Z,44.28
2022-07-30T14:41:31.682Z,38.78
2022-07-30T14:43:58.286Z,36.90
2022-07-30T14:46:24.939Z,34.30
2022-07-30T14:51:17.664Z,37.70
2022-07-30T14:53:47.482Z,34.88
2022-07-30T14:56:14.378Z,33.30
2022-07-30T14:58:44.182Z,41.30
2022-07-30T15:01:15.545Z,32.65
2022-07-30T15:03:42.856Z,36.00
2022-07-30T15:06:11.753Z,39.58
2022-07-30T15:08:38.884Z,42.22
2022-07-30T15:11:07.850Z,35.95
2022-07-30T15:13:35.734Z,36.53
2022-07-30T15:16:03.394Z,33.95
2022-07-30T15:18:30.014Z,36.65
2022-07-30T15:20:56.633Z,35.35
2022-07-30T15:23:23.272Z,40.80
2022-07-30T15:25:49.809Z,36.00
2022-07-30T15:28:16.635Z,36.83
2022-07-30T15:30:43.356Z,36.35
2022-07-30T15:33:10.002Z,36.05
2022-07-30T15:35:37.464Z,32.47
2022-07-30T15:38:04.353Z,33.17
2022-07-30T15:40:31.048Z,28.95
2022-07-30T15:42:57.765Z,28.88
2022-07-30T15:45:24.984Z,24.73
2022-07-30T15:47:51.768Z,26.33
2022-07-30T15:50:18.430Z,28.50
2022-07-30T15:52:45.242Z,28.38
2022-07-30T15:55:12.309Z,25.33
2022-07-30T15:57:39.024Z,27.83
2022-07-30T16:00:09.797Z,28.00
2022-07-30T16:02:39.854Z,27.92
2022-07-30T16:07:18.584Z,27.45
2022-07-30T16:09:45.273Z,24.30
2022-07-30T16:12:11.981Z,30.02
2022-07-30T16:14:38.609Z,23.10
2022-07-30T16:17:10.472Z,19.67
2022-07-30T16:19:40.981Z,21.48
2022-07-30T16:24:37.997Z,19.27
2022-07-30T16:27:04.713Z,22.63
2022-07-30T16:29:31.336Z,29.70
2022-07-30T16:31:57.961Z,25.38
2022-07-30T16:34:26.512Z,20.60
2022-07-30T16:36:53.853Z,27.50
2022-07-30T16:39:20.502Z,26.70
2022-07-30T16:41:47.111Z,26.13
2022-07-30T16:44:14.137Z,29.05
2022-07-30T16:46:41.803Z,24.25
2022-07-30T16:49:08.448Z,27.83
2022-07-30T16:53:56.120Z,33.63
2022-07-30T16:56:22.704Z,29.88
2022-07-30T16:58:49.225Z,27.10
2022-07-30T17:01:18.958Z,28.80
2022-07-30T17:03:45.618Z,32.88
2022-07-30T17:06:12.215Z,30.48
2022-07-30T17:08:39.170Z,28.15
2022-07-30T17:11:09.056Z,32.95
2022-07-30T17:13:36.750Z,34.53
2022-07-30T17:16:03.439Z,37.25
2022-07-30T17:18:30.081Z,35.08
2022-07-30T17:20:56.684Z,37.50
2022-07-30T17:23:23.362Z,39.22
2022-07-30T17:25:50.183Z,37.05
2022-07-30T17:28:19.456Z,39.45
2022-07-30T17:30:48.709Z,47.05
2022-07-30T17:33:15.241Z,47.22
2022-07-30T17:35:41.848Z,38.78
2022-07-30T17:38:08.430Z,41.03
2022-07-30T17:40:35.136Z,42.25
2022-07-30T17:43:05.526Z,43.42
2022-07-30T17:45:35.773Z,41.42
2022-07-30T17:48:03.176Z,42.38
2022-07-30T17:50:30.727Z,41.65
2022-07-30T17:52:57.401Z,45.25
2022-07-30T17:55:24.894Z,46.67
2022-07-30T17:57:51.634Z,50.58
2022-07-30T18:00:18.342Z,45.65
2022-07-30T18:02:44.926Z,55.08
2022-07-30T18:05:16.921Z,44.33
2022-07-30T18:07:44.382Z,51.22
2022-07-30T18:10:12.168Z,49.88
2022-07-30T18:12:39.023Z,52.58
2022-07-30T18:15:15.681Z,47.05
2022-07-30T18:17:42.221Z,50.53
2022-07-30T18:20:09.497Z,50.05
2022-07-30T18:22:36.085Z,49.72
2022-07-30T18:25:03.119Z,46.80
2022-07-30T18:27:34.367Z,48.95
2022-07-30T18:30:01.049Z,49.67
2022-07-30T18:32:27.636Z,44.45
2022-07-30T18:34:54.226Z,51.80
2022-07-30T18:37:21.000Z,47.00
2022-07-30T18:39:47.514Z,46.35
2022-07-30T18:42:14.089Z,46.67
2022-07-30T18:44:40.691Z,40.00
2022-07-30T18:47:07.312Z,40.35
2022-07-30T18:49:37.044Z,40.90
2022-07-30T18:52:05.398Z,39.95
2022-07-30T18:54:32.295Z,37.72
2022-07-30T18:56:58.901Z,37.22
2022-07-30T18:59:25.489Z,38.20
2022-07-30T19:01:52.228Z,37.78
2022-07-30T19:04:18.849Z,39.38
2022-07-30T19:06:45.649Z,35.47
2022-07-30T19:09:17.294Z,36.15
2022-07-30T19:11:45.361Z,32.83
2022-07-30T19:14:13.264Z,34.90
2022-07-30T19:16:41.834Z,40.95
2022-07-30T19:19:09.069Z,37.65
2022-07-30T19:21:35.848Z,37.95
2022-07-30T19:24:02.413Z,38.47
2022-07-30T19:26:29.148Z,49.38
2022-07-30T19:28:55.958Z,45.70
2022-07-30T19:31:22.565Z,42.33
2022-07-30T19:33:49.538Z,44.10
2022-07-30T19:36:20.595Z,45.33
2022-07-30T19:38:48.848Z,44.13
2022-07-30T19:41:16.379Z,44.58
2022-07-30T19:43:43.185Z,42.97
2022-07-30T19:46:24.520Z,47.15
2022-07-30T19:48:51.182Z,46.15
2022-07-30T19:51:20.963Z,50.78
2022-07-30T19:53:50.337Z,45.03
2022-07-30T19:56:19.536Z,49.80
2022-07-30T19:58:46.236Z,51.95
2022-07-30T20:01:16.036Z,46.15
2022-07-30T20:03:45.789Z,44.17
2022-07-30T20:06:15.132Z,49.83
2022-07-30T20:08:44.833Z,46.75
2022-07-30T20:11:16.395Z,52.20
2022-07-30T20:13:48.061Z,50.90
2022-07-30T20:16:16.079Z,52.28
2022-07-30T20:18:44.391Z,46.15
2022-07-30T20:21:15.374Z,41.65
2022-07-30T20:23:44.395Z,48.08
2022-07-30T20:26:14.283Z,39.30
2022-07-30T20:28:47.934Z,35.03
2022-07-30T20:31:20.565Z,37.30
2022-07-30T20:33:50.917Z,39.22
2022-07-30T20:36:18.440Z,40.33
2022-07-30T20:38:46.896Z,36.88
2022-07-30T20:41:14.709Z,37.15
2022-07-30T20:43:45.856Z,40.55
2022-07-30T20:46:13.770Z,37.63
2022-07-30T20:48:41.960Z,38.25
2022-07-30T20:51:09.513Z,40.35
2022-07-30T20:53:36.960Z,43.85
2022-07-30T20:56:03.969Z,47.53
2022-07-30T20:58:30.568Z,38.90
2022-07-30T21:00:57.297Z,42.03
2022-07-30T21:03:23.923Z,38.75
2022-07-30T21:05:52.726Z,37.92
2022-07-30T21:08:19.527Z,38.15
2022-07-30T21:10:46.749Z,39.88
2022-07-30T21:13:13.694Z,36.40
2022-07-30T21:15:45.755Z,28.10
2022-07-30T21:18:27.973Z,30.67
2022-07-30T21:20:54.499Z,28.25
2022-07-30T21:23:23.662Z,30.33
2022-07-30T21:26:01.998Z,29.50
2022-07-30T21:28:35.549Z,35.95
2022-07-30T21:31:07.161Z,34.95
2022-07-30T21:33:38.546Z,30.10
2022-07-30T21:36:10.286Z,33.27
2022-07-30T21:38:39.165Z,39.90
2022-07-30T21:41:14.433Z,39.50
2022-07-30T21:43:43.013Z,35.90
2022-07-30T21:46:10.578Z,43.03
2022-07-30T21:48:37.479Z,38.33
2022-07-30T21:51:06.356Z,38.85
2022-07-30T21:53:44.962Z,47.00
2022-07-30T21:56:12.503Z,39.58
2022-07-30T21:58:39.398Z,38.25
2022-07-30T22:04:04.762Z,41.03
2022-07-30T22:06:41.444Z,38.75
2022-07-30T22:09:19.015Z,49.90
2022-07-30T22:12:01.250Z,48.88
2022-07-30T22:14:29.141Z,51.90
2022-07-30T22:16:56.511Z,55.45
2022-07-30T22:19:23.241Z,52.97
2022-07-30T22:21:52.807Z,55.45
2022-07-30T22:27:14.478Z,44.40
2022-07-30T22:29:43.068Z,47.47
2022-07-30T22:32:10.887Z,47.13
2022-07-30T22:34:37.681Z,37.10
2022-07-30T22:37:04.472Z,43.15
2022-07-30T22:39:50.316Z,42.40
2022-07-30T22:42:18.484Z,52.13
2022-07-30T22:44:46.052Z,49.15
2022-07-30T22:47:18.849Z,53.83
2022-07-30T22:49:55.787Z,49.55
2022-07-30T22:55:11.806Z,41.08
2022-07-30T22:57:38.477Z,52.80
2022-07-30T23:00:11.000Z,47.13
2022-07-30T23:02:42.208Z,37.73
2022-07-30T23:05:10.411Z,39.70
2022-07-30T23:10:27.667Z,44.10
2022-07-30T23:12:28.082Z,39.55
2022-07-30T23:12:32.586Z,42.58
2022-07-30T23:12:34.278Z,44.58
2022-07-30T23:12:34.325Z,44.05
2022-07-30T23:12:54.488Z,42.25
2022-07-30T23:15:22.001Z,47.85
2022-07-30T23:17:48.772Z,48.38
2022-07-30T23:20:17.852Z,52.58
2022-07-30T23:22:44.457Z,56.33
2022-07-30T23:25:12.253Z,51.90
2022-07-30T23:27:39.547Z,66.43
2022-07-30T23:30:08.369Z,59.47
2022-07-30T23:32:34.973Z,71.05
2022-07-30T23:35:01.564Z,77.63
2022-07-30T23:37:28.529Z,80.45
2022-07-30T23:40:06.717Z,78.38
2022-07-30T23:42:33.313Z,58.53
2022-07-30T23:45:00.057Z,68.43
2022-07-30T23:47:52.887Z,56.17
2022-07-30T23:50:13.344Z,49.58
2022-07-30T23:52:40.418Z,52.10
2022-07-30T23:55:08.585Z,62.55
2022-07-30T23:57:35.093Z,59.88
